Time,TemperatureF,DewpointF,PressureIn,WindDirection,WindDirectionDegrees,WindSpeedMPH,WindSpeedGustMPH,Humidity,HourlyPrecipIn,Conditions,Clouds,dailyrainin,SolarRadiationWatts/m^2,SoftwareType,DateUTC
2013-04-28 00:01:00,57.8,39.8,30.22,South,174,1.2,4.6,51,0.00,FEW,,0.00,0.0,WeatherDisplay:10.37,2013-04-28 04:01:00,
2013-04-28 00:02:00,57.6,39.1,30.22,South,169,7.1,13.8,50,0.00,CLR,,0.00,0.0,WeatherDisplay:10.37,2013-04-28 04:02:00,
2013-04-28 00:04:00,57.8,39.3,30.22,SSE,167,1.5,8.1,50,0.00,CLR,,0.00,0.0,WeatherDisplay:10.37,2013-04-28 04:04:00,
2013-04-28 00:09:00,57.8,39.3,30.23,SSW,194,2.8,6.0,50,0.00,CLR,,0.00,0.0,WeatherDisplay:10.37,2013-04-28 04:09:00,
2013-04-28 00:14:00,57.5,39.0,30.22,SSW,194,0.2,1.5,50,0.00,CLR,,0.00,0.0,WeatherDisplay:10.37,2013-04-28 04:14:00,
2013-04-28 00:19:00,57.0,39.0,30.23,SSE,154,2.4,5.8,51,0.00,CLR,,0.00,0.0,WeatherDisplay:10.37,2013-04-28 04:19:00,
2013-04-28 00:24:00,56.7,38.8,30.23,SSE,149,0.0,0.0,51,0.00,CLR,,0.00,0.0,WeatherDisplay:10.37,2013-04-28 04:24:00,
2013-04-28 00:29:00,56.5,39.1,30.22,SSE,149,1.4,4.6,52,0.00,CLR,,0.00,0.0,WeatherDisplay:10.37,2013-04-28 04:29:00,
2013-04-28 00:34:00,55.7,38.8,30.22,SSE,149,0.0,1.2,53,0.00,CLR,,0.00,0.0,WeatherDisplay:10.37,2013-04-28 04:34:00,
2013-04-28 00:39:00,55.3,38.4,30.22,SSE,149,0.0,1.2,53,0.00,CLR,,0.00,0.0,WeatherDisplay:10.37,2013-04-28 04:39:00,
2013-04-28 00:44:00,55.1,38.7,30.22,SSE,149,0.0,0.0,54,0.00,CLR,,0.00,0.0,WeatherDisplay:10.37,2013-04-28 04:44:00,
2013-04-28 00:49:00,54.8,38.5,30.22,SSE,149,0.0,0.0,54,0.00,CLR,,0.00,0.0,WeatherDisplay:10.37,2013-04-28 04:49:00,
2013-04-28 00:54:00,54.4,38.6,30.22,SSE,149,0.0,0.0,55,0.00,CLR,,0.00,0.0,WeatherDisplay:10.37,2013-04-28 04:54:00,
2013-04-28 00:59:00,54.1,38.7,30.22,South,184,2.2,10.5,56,0.00,CLR,,0.00,0.0,WeatherDisplay:10.37,2013-04-28 04:59:00,
2013-04-28 01:04:00,54.5,38.7,30.22,SW,229,3.4,9.0,55,0.00,FEW,,0.00,0.0,WeatherDisplay:10.37,2013-04-28 05:04:00,
2013-04-28 01:09:00,54.8,38.5,30.22,SW,227,0.4,1.5,54,0.00,FEW,,0.00,0.0,WeatherDisplay:10.37,2013-04-28 05:09:00,
2013-04-28 01:14:00,55.0,38.6,30.22,WSW,238,4.8,15.0,54,0.00,FEW,,0.00,0.0,WeatherDisplay:10.37,2013-04-28 05:14:00,
2013-04-28 01:19:00,55.7,38.3,30.22,South,175,1.7,4.6,52,0.00,FEW,,0.00,0.0,WeatherDisplay:10.37,2013-04-28 05:19:00,
2013-04-28 01:24:00,55.6,38.2,30.22,SSW,209,0.1,1.5,52,0.00,FEW,,0.00,0.0,WeatherDisplay:10.37,2013-04-28 05:24:00,
2013-04-28 01:29:00,55.9,38.5,30.22,South,179,2.8,8.1,52,0.00,FEW,,0.00,0.0,WeatherDisplay:10.37,2013-04-28 05:29:00,
2013-04-28 01:34:00,57.0,38.5,30.22,SSE,159,0.0,5.8,50,0.00,FEW,,0.00,0.0,WeatherDisplay:10.37,2013-04-28 05:34:00,
2013-04-28 01:39:00,56.9,38.4,30.22,SSE,161,3.7,6.0,50,0.00,FEW,,0.00,0.0,WeatherDisplay:10.37,2013-04-28 05:39:00,
2013-04-28 01:44:00,57.2,38.2,30.22,South,182,4.6,9.2,49,0.00,FEW,,0.00,0.0,WeatherDisplay:10.37,2013-04-28 05:44:00,
2013-04-28 01:49:00,57.5,37.9,30.22,SSE,158,2.8,5.8,48,0.00,FEW,,0.00,0.0,WeatherDisplay:10.37,2013-04-28 05:49:00,
2013-04-28 01:54:00,57.2,38.2,30.22,SSE,159,0.9,4.6,49,0.00,FEW,,0.00,0.0,WeatherDisplay:10.37,2013-04-28 05:54:00,
2013-04-28 01:59:00,57.2,37.7,30.22,SSE,151,9.1,10.4,48,0.00,FEW,,0.00,0.0,WeatherDisplay:10.37,2013-04-28 05:59:00,
2013-04-28 02:04:00,57.3,38.3,30.22,SSE,155,3.6,9.0,49,0.00,FEW,,0.00,0.0,WeatherDisplay:10.37,2013-04-28 06:04:00,
2013-04-28 02:09:00,56.9,37.9,30.22,SSE,155,3.7,4.5,49,0.00,FEW,,0.00,0.0,WeatherDisplay:10.37,2013-04-28 06:09:00,
2013-04-28 02:14:00,56.5,38.6,30.21,SSE,157,1.2,5.8,51,0.00,FEW,,0.00,0.0,WeatherDisplay:10.37,2013-04-28 06:14:00,
2013-04-28 02:19:00,56.0,38.1,30.21,SSE,153,7.2,9.2,51,0.00,FEW,,0.00,0.0,WeatherDisplay:10.37,2013-04-28 06:19:00,
2013-04-28 02:24:00,55.9,38.0,30.21,SSE,154,6.8,8.1,51,0.00,FEW,,0.00,0.0,WeatherDisplay:10.37,2013-04-28 06:24:00,
2013-04-28 02:29:00,56.2,38.3,30.21,SSW,196,3.8,5.8,51,0.00,FEW,,0.00,0.0,WeatherDisplay:10.37,2013-04-28 06:29:00,
2013-04-28 02:34:00,56.0,38.6,30.21,South,184,5.4,7.5,52,0.00,FEW,,0.00,0.0,WeatherDisplay:10.37,2013-04-28 06:34:00,
2013-04-28 02:39:00,55.9,38.5,30.20,South,170,1.6,4.6,52,0.00,FEW,,0.00,0.0,WeatherDisplay:10.37,2013-04-28 06:39:00,
2013-04-28 02:44:00,55.7,38.3,30.19,SSE,167,5.4,9.2,52,0.00,FEW,,0.00,0.0,WeatherDisplay:10.37,2013-04-28 06:44:00,
2013-04-28 02:49:00,55.7,38.3,30.19,SE,146,7.0,13.5,52,0.00,FEW,,0.00,0.0,WeatherDisplay:10.37,2013-04-28 06:49:00,
2013-04-28 02:54:00,56.2,38.8,30.19,South,175,8.4,10.5,52,0.00,FEW,,0.00,0.0,WeatherDisplay:10.37,2013-04-28 06:54:00,
2013-04-28 02:59:00,56.0,38.6,30.19,SSE,153,5.4,9.2,52,0.00,FEW,,0.00,0.0,WeatherDisplay:10.37,2013-04-28 06:59:00,
2013-04-28 03:04:00,55.7,38.8,30.18,SSE,155,8.5,18.0,53,0.00,FEW,,0.00,0.0,WeatherDisplay:10.37,2013-04-28 07:04:00,
2013-04-28 03:09:00,55.6,38.7,30.18,SSE,168,1.4,4.6,53,0.00,FEW,,0.00,0.0,WeatherDisplay:10.37,2013-04-28 07:09:00,
2013-04-28 03:14:00,55.1,38.7,30.18,SSE,168,0.5,3.0,54,0.00,FEW,,0.00,0.0,WeatherDisplay:10.37,2013-04-28 07:14:00,
2013-04-28 03:19:00,54.5,38.7,30.18,SSE,168,1.0,3.5,55,0.00,FEW,,0.00,0.0,WeatherDisplay:10.37,2013-04-28 07:19:00,
2013-04-28 03:24:00,54.1,38.7,30.18,SSE,168,0.0,0.0,56,0.00,FEW,,0.00,0.0,WeatherDisplay:10.37,2013-04-28 07:24:00,
2013-04-28 03:29:00,53.6,38.7,30.18,SSE,168,0.0,0.0,57,0.00,FEW,,0.00,0.0,WeatherDisplay:10.37,2013-04-28 07:29:00,
2013-04-28 03:34:00,53.2,38.8,30.18,SSE,168,0.1,1.2,58,0.00,FEW,,0.00,0.0,WeatherDisplay:10.37,2013-04-28 07:34:00,
2013-04-28 03:39:00,53.2,38.8,30.18,SSE,156,1.6,5.8,58,0.00,FEW,,0.00,0.0,WeatherDisplay:10.37,2013-04-28 07:39:00,
2013-04-28 03:44:00,53.3,39.3,30.18,South,173,1.7,4.6,59,0.00,FEW,,0.00,0.0,WeatherDisplay:10.37,2013-04-28 07:44:00,
2013-04-28 03:49:00,54.5,39.6,30.18,South,177,5.8,13.5,57,0.00,FEW,,0.00,0.0,WeatherDisplay:10.37,2013-04-28 07:49:00,
2013-04-28 03:54:00,55.1,39.2,30.18,SSE,163,6.5,10.4,55,0.00,FEW,,0.00,0.0,WeatherDisplay:10.37,2013-04-28 07:54:00,
2013-04-28 03:59:00,55.0,38.6,30.18,SSE,153,7.5,15.0,54,0.00,FEW,,0.00,0.0,WeatherDisplay:10.37,2013-04-28 07:59:00,
2013-04-28 04:04:00,55.1,38.7,30.17,South,182,4.0,15.0,54,0.00,FEW,,0.00,0.0,WeatherDisplay:10.37,2013-04-28 08:04:00,
2013-04-28 04:09:00,54.7,38.4,30.18,SSE,153,3.0,8.1,54,0.00,FEW,,0.00,0.0,WeatherDisplay:10.37,2013-04-28 08:09:00,
2013-04-28 04:14:00,54.7,37.4,30.18,South,185,7.3,9.2,52,0.00,FEW,,0.00,0.0,WeatherDisplay:10.37,2013-04-28 08:14:00,
2013-04-28 04:19:00,55.1,36.8,30.18,South,169,7.4,13.8,50,0.00,FEW,,0.00,0.0,WeatherDisplay:10.37,2013-04-28 08:19:00,
2013-04-28 04:24:00,55.1,36.8,30.18,SSE,150,5.7,10.5,50,0.00,FEW,,0.00,0.0,WeatherDisplay:10.37,2013-04-28 08:24:00,
2013-04-28 04:29:00,55.3,37.0,30.18,South,171,1.2,8.1,50,0.00,FEW,,0.00,0.0,WeatherDisplay:10.37,2013-04-28 08:29:00,
2013-04-28 04:34:00,55.1,36.8,30.18,SSE,152,8.1,15.0,50,0.00,FEW,,0.00,0.0,WeatherDisplay:10.37,2013-04-28 08:34:00,
2013-04-28 04:39:00,54.8,37.0,30.18,SSE,152,7.0,10.5,51,0.00,FEW,,0.00,0.0,WeatherDisplay:10.37,2013-04-28 08:39:00,
2013-04-28 04:44:00,54.4,37.1,30.18,SSE,150,1.9,8.1,52,0.00,FEW,,0.00,0.0,WeatherDisplay:10.37,2013-04-28 08:44:00,
2013-04-28 04:49:00,54.1,37.3,30.18,South,180,6.9,13.5,53,0.00,FEW,,0.00,0.0,WeatherDisplay:10.37,2013-04-28 08:49:00,
2013-04-28 04:54:00,54.1,37.8,30.18,SSE,150,2.7,6.0,54,0.00,FEW,,0.00,0.0,WeatherDisplay:10.37,2013-04-28 08:54:00,
2013-04-28 04:59:00,53.6,37.8,30.18,SSE,150,0.1,1.5,55,0.00,FEW,,0.00,0.0,WeatherDisplay:10.37,2013-04-28 08:59:00,
2013-04-28 05:04:00,53.2,37.9,30.18,SSE,151,5.1,7.5,56,0.00,CLR,,0.00,0.0,WeatherDisplay:10.37,2013-04-28 09:04:00,
2013-04-28 05:09:00,53.1,37.8,30.18,SSE,159,5.2,5.2,56,0.00,CLR,,0.00,0.0,WeatherDisplay:10.37,2013-04-28 09:09:00,
2013-04-28 05:14:00,53.1,37.8,30.18,SSW,202,0.3,3.5,56,0.00,CLR,,0.00,0.0,WeatherDisplay:10.37,2013-04-28 09:14:00,
2013-04-28 05:19:00,52.9,38.1,30.18,South,170,1.3,6.0,57,0.00,CLR,,0.00,0.0,WeatherDisplay:10.37,2013-04-28 09:19:00,
2013-04-28 05:24:00,52.9,37.6,30.17,SSE,165,5.1,9.0,56,0.00,CLR,,0.00,0.0,WeatherDisplay:10.37,2013-04-28 09:24:00,
2013-04-28 05:29:00,53.2,37.9,30.17,SSE,148,5.3,7.5,56,0.00,CLR,,0.00,0.0,WeatherDisplay:10.37,2013-04-28 09:29:00,
2013-04-28 05:34:00,53.5,36.8,30.17,South,182,8.2,9.2,53,0.00,CLR,,0.00,0.0,WeatherDisplay:10.37,2013-04-28 09:34:00,
2013-04-28 05:39:00,53.9,36.7,30.17,SSE,151,4.3,9.2,52,0.00,CLR,,0.00,0.0,WeatherDisplay:10.37,2013-04-28 09:39:00,
2013-04-28 05:44:00,53.9,36.2,30.17,SSE,160,9.3,15.0,51,0.00,CLR,,0.00,0.0,WeatherDisplay:10.37,2013-04-28 09:44:00,
2013-04-28 05:49:00,54.5,35.7,30.17,SSE,157,6.4,10.4,49,0.00,CLR,,0.00,0.0,WeatherDisplay:10.37,2013-04-28 09:49:00,
2013-04-28 05:54:00,54.5,35.7,30.18,SE,141,5.1,13.8,49,0.00,CLR,,0.00,0.0,WeatherDisplay:10.37,2013-04-28 09:54:00,
2013-04-28 05:59:00,54.1,36.4,30.18,SSE,160,3.5,7.5,51,0.00,CLR,,0.00,0.0,WeatherDisplay:10.37,2013-04-28 09:59:00,
2013-04-28 06:04:00,53.8,36.6,30.18,SSE,165,4.1,9.2,52,0.00,CLR,,0.00,0.0,WeatherDisplay:10.37,2013-04-28 10:04:00,
2013-04-28 06:09:00,53.6,36.9,30.18,SSE,167,3.3,5.8,53,0.00,CLR,,0.00,0.0,WeatherDisplay:10.37,2013-04-28 10:09:00,
2013-04-28 06:14:00,53.3,37.5,30.18,SSE,166,7.1,9.2,55,0.00,CLR,,0.00,0.0,WeatherDisplay:10.37,2013-04-28 10:14:00,
2013-04-28 06:19:00,53.3,37.5,30.18,SSE,157,7.5,10.4,55,0.00,CLR,,0.00,0.0,WeatherDisplay:10.37,2013-04-28 10:19:00,
2013-04-28 06:24:00,53.5,37.7,30.18,SE,146,7.5,10.5,55,0.00,CLR,,0.00,7.0,WeatherDisplay:10.37,2013-04-28 10:24:00,
2013-04-28 06:29:00,53.5,37.7,30.18,SSE,152,10.2,13.8,55,0.00,CLR,,0.00,12.0,WeatherDisplay:10.37,2013-04-28 10:29:00,
2013-04-28 06:34:00,53.5,37.7,30.18,South,172,5.9,9.2,55,0.00,CLR,,0.00,18.0,WeatherDisplay:10.37,2013-04-28 10:34:00,
2013-04-28 06:39:00,53.3,37.5,30.19,South,178,2.3,8.1,55,0.00,CLR,,0.00,21.0,WeatherDisplay:10.37,2013-04-28 10:39:00,
2013-04-28 06:44:00,53.3,37.5,30.19,SSE,161,4.7,15.0,55,0.00,CLR,,0.00,26.0,WeatherDisplay:10.37,2013-04-28 10:44:00,
2013-04-28 06:49:00,53.3,37.5,30.18,South,182,2.9,9.2,55,0.00,CLR,,0.00,33.0,WeatherDisplay:10.37,2013-04-28 10:49:00,
2013-04-28 06:54:00,53.2,37.9,30.18,SSE,161,4.8,6.0,56,0.00,CLR,,0.00,51.0,WeatherDisplay:10.37,2013-04-28 10:54:00,
2013-04-28 06:59:00,53.5,38.2,30.19,SSE,150,7.1,9.2,56,0.00,CLR,,0.00,74.0,WeatherDisplay:10.37,2013-04-28 10:59:00,
2013-04-28 07:04:00,53.5,38.6,30.19,SSE,155,0.7,3.5,57,0.00,SCT,,0.00,91.0,WeatherDisplay:10.37,2013-04-28 11:04:00,
2013-04-28 07:09:00,53.8,39.4,30.19,SSE,154,0.1,1.2,58,0.00,SCT,,0.00,109.0,WeatherDisplay:10.37,2013-04-28 11:09:00,
2013-04-28 07:14:00,54.2,38.8,30.19,ESE,120,3.3,5.8,56,0.00,SCT,,0.00,132.0,WeatherDisplay:10.37,2013-04-28 11:14:00,
2013-04-28 07:19:00,54.7,39.3,30.19,SE,128,5.0,9.0,56,0.00,SCT,,0.00,132.0,WeatherDisplay:10.37,2013-04-28 11:19:00,
2013-04-28 07:24:00,55.0,39.1,30.19,SSE,160,7.0,10.4,55,0.00,SCT,,0.00,125.0,WeatherDisplay:10.37,2013-04-28 11:24:00,
2013-04-28 07:29:00,55.0,39.6,30.19,SSE,160,1.7,4.6,56,0.00,SCT,,0.00,111.0,WeatherDisplay:10.37,2013-04-28 11:29:00,
2013-04-28 07:34:00,54.8,39.4,30.19,SE,130,1.7,3.5,56,0.00,SCT,,0.00,153.0,WeatherDisplay:10.37,2013-04-28 11:34:00,
2013-04-28 07:39:00,55.0,40.0,30.19,SSE,149,4.6,5.8,57,0.00,SCT,,0.00,176.0,WeatherDisplay:10.37,2013-04-28 11:39:00,
2013-04-28 07:44:00,55.1,40.1,30.19,SSE,155,1.4,5.8,57,0.00,SCT,,0.00,202.0,WeatherDisplay:10.37,2013-04-28 11:44:00,
2013-04-28 07:49:00,55.9,40.4,30.19,South,178,0.1,4.6,56,0.00,SCT,,0.00,230.0,WeatherDisplay:10.37,2013-04-28 11:49:00,
2013-04-28 07:54:00,56.5,39.6,30.19,SSE,154,7.4,13.8,53,0.00,SCT,,0.00,264.0,WeatherDisplay:10.37,2013-04-28 11:54:00,
2013-04-28 07:59:00,56.9,40.9,30.19,SSE,154,4.9,6.0,55,0.00,SCT,,0.00,276.0,WeatherDisplay:10.37,2013-04-28 11:59:00,
2013-04-28 08:04:00,57.3,39.8,30.19,SSE,166,5.4,13.5,52,0.00,SCT,,0.00,276.0,WeatherDisplay:10.37,2013-04-28 12:04:00,
2013-04-28 08:09:00,57.5,40.0,30.19,South,173,4.6,9.0,52,0.00,SCT,,0.00,283.0,WeatherDisplay:10.37,2013-04-28 12:09:00,
2013-04-28 08:14:00,57.8,39.3,30.19,SSE,166,9.3,15.0,50,0.00,SCT,,0.00,274.0,WeatherDisplay:10.37,2013-04-28 12:14:00,
2013-04-28 08:19:00,58.0,38.4,30.19,South,175,9.5,13.8,48,0.00,SCT,,0.00,334.0,WeatherDisplay:10.37,2013-04-28 12:19:00,
2013-04-28 08:24:00,58.3,39.2,30.19,SSE,158,13.3,15.0,49,0.00,SCT,,0.00,357.0,WeatherDisplay:10.37,2013-04-28 12:24:00,
2013-04-28 08:29:00,58.3,39.2,30.19,SSE,152,12.3,15.0,49,0.00,SCT,,0.00,371.0,WeatherDisplay:10.37,2013-04-28 12:29:00,
2013-04-28 08:34:00,58.4,38.8,30.20,SE,135,10.1,15.0,48,0.00,SCT,,0.00,325.0,WeatherDisplay:10.37,2013-04-28 12:34:00,
2013-04-28 08:39:00,58.3,38.7,30.20,SE,138,8.2,12.0,48,0.00,SCT,,0.00,359.0,WeatherDisplay:10.37,2013-04-28 12:39:00,
2013-04-28 08:44:00,58.3,38.1,30.19,SSE,164,12.7,15.0,47,0.00,SCT,,0.00,341.0,WeatherDisplay:10.37,2013-04-28 12:44:00,
2013-04-28 08:49:00,58.3,38.7,30.19,SSE,147,13.0,18.4,48,0.00,SCT,,0.00,376.0,WeatherDisplay:10.37,2013-04-28 12:49:00,
2013-04-28 08:54:00,58.3,39.2,30.20,SSW,194,10.5,16.1,49,0.00,SCT,,0.00,401.0,WeatherDisplay:10.37,2013-04-28 12:54:00,
2013-04-28 08:59:00,58.3,38.7,30.20,SSE,162,9.0,16.5,48,0.00,SCT,,0.00,285.0,WeatherDisplay:10.37,2013-04-28 12:59:00,
2013-04-28 09:04:00,58.1,38.5,30.20,SSE,151,13.0,18.4,48,0.00,SCT,,0.00,241.0,WeatherDisplay:10.37,2013-04-28 13:04:00,
2013-04-28 09:09:00,57.8,37.7,30.20,SE,146,15.8,18.4,47,0.00,SCT,,0.00,211.0,WeatherDisplay:10.37,2013-04-28 13:09:00,
2013-04-28 09:14:00,57.8,38.2,30.20,SSE,148,12.2,24.2,48,0.00,SCT,,0.00,227.0,WeatherDisplay:10.37,2013-04-28 13:14:00,
2013-04-28 09:19:00,57.8,39.3,30.20,SSE,155,10.3,15.0,50,0.00,SCT,,0.00,229.0,WeatherDisplay:10.37,2013-04-28 13:19:00,
2013-04-28 09:24:00,58.0,39.5,30.20,SE,143,9.6,13.5,50,0.00,SCT,,0.00,262.0,WeatherDisplay:10.37,2013-04-28 13:24:00,
2013-04-28 09:29:00,58.3,39.2,30.19,SSE,149,17.0,19.6,49,0.00,SCT,,0.00,278.0,WeatherDisplay:10.37,2013-04-28 13:29:00,
2013-04-28 09:34:00,58.4,39.8,30.19,SSE,149,7.9,10.4,50,0.00,SCT,,0.00,338.0,WeatherDisplay:10.37,2013-04-28 13:34:00,
2013-04-28 09:39:00,58.7,39.6,30.19,SE,143,18.0,23.0,49,0.00,SCT,,0.00,403.0,WeatherDisplay:10.37,2013-04-28 13:39:00,
2013-04-28 09:44:00,59.3,40.1,30.19,SSE,157,7.7,13.8,49,0.00,SCT,,0.00,591.0,WeatherDisplay:10.37,2013-04-28 13:44:00,
2013-04-28 09:49:00,60.2,39.9,30.19,SSE,165,6.4,15.0,47,0.00,SCT,,0.00,483.0,WeatherDisplay:10.37,2013-04-28 13:49:00,
2013-04-28 09:54:00,60.1,39.8,30.19,SSE,155,13.0,15.0,47,0.00,SCT,,0.00,394.0,WeatherDisplay:10.37,2013-04-28 13:54:00,
2013-04-28 09:59:00,59.8,38.4,30.19,SSE,155,12.3,19.6,45,0.00,SCT,,0.00,345.0,WeatherDisplay:10.37,2013-04-28 13:59:00,
2013-04-28 10:04:00,59.9,39.1,30.19,SSE,148,8.9,10.5,46,0.00,BKN,,0.00,322.0,WeatherDisplay:10.37,2013-04-28 14:04:00,
2013-04-28 10:09:00,59.9,38.5,30.19,SSE,152,12.3,19.6,45,0.00,BKN,,0.00,292.0,WeatherDisplay:10.37,2013-04-28 14:09:00,
2013-04-28 10:14:00,60.1,39.2,30.19,SE,142,5.9,8.1,46,0.00,BKN,,0.00,278.0,WeatherDisplay:10.37,2013-04-28 14:14:00,
2013-04-28 10:19:00,60.2,39.9,30.19,ESE,117,5.6,9.2,47,0.00,BKN,,0.00,258.0,WeatherDisplay:10.37,2013-04-28 14:19:00,
2013-04-28 10:24:00,60.2,38.8,30.20,SSE,155,7.5,10.4,45,0.00,BKN,,0.00,246.0,WeatherDisplay:10.37,2013-04-28 14:24:00,
2013-04-28 10:29:00,60.2,39.3,30.20,SSE,164,5.2,8.1,46,0.00,BKN,,0.00,211.0,WeatherDisplay:10.37,2013-04-28 14:29:00,
2013-04-28 10:34:00,60.1,38.1,30.20,South,177,6.1,11.5,44,0.00,BKN,,0.00,216.0,WeatherDisplay:10.37,2013-04-28 14:34:00,
2013-04-28 10:39:00,60.1,37.5,30.20,SSE,157,5.9,13.8,43,0.00,BKN,,0.00,232.0,WeatherDisplay:10.37,2013-04-28 14:39:00,
2013-04-28 10:44:00,60.1,38.1,30.20,SSE,164,7.4,10.5,44,0.00,BKN,,0.00,209.0,WeatherDisplay:10.37,2013-04-28 14:44:00,
2013-04-28 10:49:00,60.1,38.7,30.20,South,179,4.8,15.0,45,0.00,BKN,,0.00,202.0,WeatherDisplay:10.37,2013-04-28 14:49:00,
2013-04-28 10:54:00,60.1,38.7,30.20,SSE,155,6.6,8.1,45,0.00,BKN,,0.00,192.0,WeatherDisplay:10.37,2013-04-28 14:54:00,
2013-04-28 10:59:00,60.1,39.8,30.20,South,169,4.0,9.0,47,0.00,BKN,,0.00,206.0,WeatherDisplay:10.37,2013-04-28 14:59:00,
2013-04-28 11:04:00,60.1,39.2,30.20,SSE,153,10.1,11.5,46,0.00,OVC,,0.00,211.0,WeatherDisplay:10.37,2013-04-28 15:04:00,
2013-04-28 11:09:00,59.9,37.9,30.20,SSE,163,9.7,18.4,44,0.00,OVC,,0.00,232.0,WeatherDisplay:10.37,2013-04-28 15:09:00,
2013-04-28 11:14:00,60.1,39.2,30.20,SSE,162,10.0,13.8,46,0.00,OVC,,0.00,225.0,WeatherDisplay:10.37,2013-04-28 15:14:00,
2013-04-28 11:19:00,60.1,38.7,30.20,South,172,10.1,19.6,45,0.00,OVC,,0.00,257.0,WeatherDisplay:10.37,2013-04-28 15:19:00,
2013-04-28 11:24:00,60.1,39.2,30.20,South,179,7.8,15.0,46,0.00,OVC,,0.00,283.0,WeatherDisplay:10.37,2013-04-28 15:24:00,
2013-04-28 11:29:00,60.1,39.2,30.20,South,184,11.0,16.1,46,0.00,OVC,,0.00,230.0,WeatherDisplay:10.37,2013-04-28 15:29:00,
2013-04-28 11:34:00,60.1,39.2,30.20,SE,142,9.3,15.0,46,0.00,OVC,,0.00,160.0,WeatherDisplay:10.37,2013-04-28 15:34:00,
2013-04-28 11:39:00,59.8,39.5,30.20,South,173,4.9,10.4,47,0.00,OVC,,0.00,146.0,WeatherDisplay:10.37,2013-04-28 15:39:00,
2013-04-28 11:44:00,59.8,40.1,30.20,SSE,158,8.0,15.0,48,0.00,OVC,,0.00,144.0,WeatherDisplay:10.37,2013-04-28 15:44:00,
2013-04-28 11:49:00,59.5,39.8,30.21,SE,145,11.4,11.4,48,0.00,OVC,,0.00,144.0,WeatherDisplay:10.37,2013-04-28 15:49:00,
2013-04-28 11:54:00,59.3,39.6,30.20,SSE,152,10.3,15.0,48,0.00,OVC,,0.00,169.0,WeatherDisplay:10.37,2013-04-28 15:54:00,
2013-04-28 11:59:00,59.3,40.1,30.20,SSE,161,9.7,15.0,49,0.00,OVC,,0.00,188.0,WeatherDisplay:10.37,2013-04-28 15:59:00,
2013-04-28 12:04:00,59.2,40.0,30.20,SE,138,11.3,16.5,49,0.00,OVC,,0.00,200.0,WeatherDisplay:10.37,2013-04-28 16:04:00,
2013-04-28 12:09:00,59.2,40.0,30.20,SSE,150,11.3,16.1,49,0.00,OVC,,0.00,162.0,WeatherDisplay:10.37,2013-04-28 16:09:00,
2013-04-28 12:14:00,58.9,39.8,30.20,SSE,157,22.5,25.3,49,0.00,OVC,,0.00,120.0,WeatherDisplay:10.37,2013-04-28 16:14:00,
2013-04-28 12:19:00,58.6,41.0,30.20,SSE,150,15.6,24.2,52,0.00,OVC,,0.00,123.0,WeatherDisplay:10.37,2013-04-28 16:19:00,
2013-04-28 12:24:00,58.1,42.0,30.20,SSW,194,5.9,8.1,55,0.00,OVC,,0.00,113.0,WeatherDisplay:10.37,2013-04-28 16:24:00,
2013-04-28 12:29:00,57.8,41.3,30.20,SSE,148,9.9,15.0,54,0.00,OVC,,0.00,116.0,WeatherDisplay:10.37,2013-04-28 16:29:00,
2013-04-28 12:34:00,57.6,42.0,30.20,SSE,158,9.8,9.8,56,0.00,OVC,,0.00,102.0,WeatherDisplay:10.37,2013-04-28 16:34:00,
2013-04-28 12:39:00,57.3,42.6,30.20,SSE,167,9.7,19.6,58,0.00,OVC,,0.00,109.0,WeatherDisplay:10.37,2013-04-28 16:39:00,
2013-04-28 12:44:00,57.0,42.8,30.21,South,180,8.5,13.8,59,0.00,OVC,,0.00,111.0,WeatherDisplay:10.37,2013-04-28 16:44:00,
2013-04-28 12:49:00,56.7,43.8,30.20,SSE,157,6.9,9.2,62,0.00,OVC,,0.00,111.0,WeatherDisplay:10.37,2013-04-28 16:49:00,
2013-04-28 12:54:00,56.6,45.0,30.20,SSE,168,2.2,4.6,65,0.00,OVC,,0.00,104.0,WeatherDisplay:10.37,2013-04-28 16:54:00,
2013-04-28 12:59:00,56.3,44.7,30.20,SSE,167,6.5,8.1,65,0.00,OVC,,0.00,88.0,WeatherDisplay:10.37,2013-04-28 16:59:00,
2013-04-28 13:04:00,56.2,45.0,30.20,South,187,3.6,6.0,66,0.00,-RA,,0.00,105.0,WeatherDisplay:10.37,2013-04-28 17:04:00,
2013-04-28 13:09:00,55.9,45.1,30.20,SSE,159,4.7,8.1,67,0.00,-RA,,0.00,118.0,WeatherDisplay:10.37,2013-04-28 17:09:00,
2013-04-28 13:14:00,55.9,45.5,30.20,SE,143,4.4,10.5,68,0.00,-RA,,0.00,109.0,WeatherDisplay:10.37,2013-04-28 17:14:00,
2013-04-28 13:19:00,55.7,45.3,30.20,SSE,159,7.0,12.0,68,0.00,-RA,,0.00,123.0,WeatherDisplay:10.37,2013-04-28 17:19:00,
2013-04-28 13:24:00,55.6,45.6,30.20,South,190,6.5,9.2,69,0.01,-RA,,0.01,102.0,WeatherDisplay:10.37,2013-04-28 17:24:00,
2013-04-28 13:29:00,55.1,45.9,30.20,SSE,159,6.9,10.5,71,0.01,-RA,,0.01,90.0,WeatherDisplay:10.37,2013-04-28 17:29:00,
2013-04-28 13:34:00,54.7,45.8,30.20,SE,134,6.7,16.5,72,0.01,-RA,,0.01,105.0,WeatherDisplay:10.37,2013-04-28 17:34:00,
2013-04-28 13:39:00,54.4,46.3,30.21,SE,142,8.7,15.0,74,0.01,-RA,,0.01,98.0,WeatherDisplay:10.37,2013-04-28 17:39:00,
2013-04-28 13:44:00,54.2,46.4,30.20,SSE,153,9.8,15.0,75,0.01,-RA,,0.01,90.0,WeatherDisplay:10.37,2013-04-28 17:44:00,
2013-04-28 13:49:00,54.1,47.0,30.20,SSE,154,3.4,6.0,77,0.02,-RA,,0.02,102.0,WeatherDisplay:10.37,2013-04-28 17:49:00,
2013-04-28 13:54:00,53.9,47.2,30.20,SSE,155,3.5,5.8,78,0.02,-RA,,0.02,98.0,WeatherDisplay:10.37,2013-04-28 17:54:00,
2013-04-28 13:59:00,53.6,47.2,30.20,SSE,155,10.1,13.8,79,0.02,-RA,,0.02,90.0,WeatherDisplay:10.37,2013-04-28 17:59:00,
2013-04-28 14:04:00,53.5,46.8,30.20,South,169,7.4,13.8,78,0.02,-RA,,0.02,90.0,WeatherDisplay:10.37,2013-04-28 18:04:00,
2013-04-28 14:09:00,53.3,46.6,30.20,South,178,4.4,10.4,78,0.02,-RA,,0.02,91.0,WeatherDisplay:10.37,2013-04-28 18:09:00,
2013-04-28 14:14:00,53.2,46.9,30.20,SSE,160,10.5,12.0,79,0.02,-RA,,0.02,97.0,WeatherDisplay:10.37,2013-04-28 18:14:00,
2013-04-28 14:19:00,53.1,47.1,30.20,South,171,4.6,8.1,80,0.03,-RA,,0.03,86.0,WeatherDisplay:10.37,2013-04-28 18:19:00,
2013-04-28 14:24:00,52.9,47.2,30.20,SSE,148,5.3,6.0,81,0.02,-RA,,0.03,97.0,WeatherDisplay:10.37,2013-04-28 18:24:00,
2013-04-28 14:29:00,52.8,47.5,30.20,South,175,3.8,5.8,82,0.02,-RA,,0.03,83.0,WeatherDisplay:10.37,2013-04-28 18:29:00,
2013-04-28 14:34:00,52.6,47.3,30.20,SSE,148,4.7,8.1,82,0.03,-RA,,0.04,86.0,WeatherDisplay:10.37,2013-04-28 18:34:00,
2013-04-28 14:39:00,52.6,47.3,30.20,SSE,155,5.1,9.2,82,0.03,-RA,,0.04,98.0,WeatherDisplay:10.37,2013-04-28 18:39:00,
2013-04-28 14:44:00,52.6,47.6,30.20,SSE,166,4.1,9.2,83,0.03,-RA,,0.04,93.0,WeatherDisplay:10.37,2013-04-28 18:44:00,
2013-04-28 14:49:00,52.5,47.5,30.20,SSE,159,3.5,8.1,83,0.02,-RA,,0.04,91.0,WeatherDisplay:10.37,2013-04-28 18:49:00,
2013-04-28 14:54:00,52.5,47.5,30.20,SSE,156,6.7,8.1,83,0.02,-RA,,0.04,100.0,WeatherDisplay:10.37,2013-04-28 18:54:00,
2013-04-28 14:59:00,52.5,47.5,30.20,SSE,159,5.2,8.1,83,0.03,-RA,,0.05,97.0,WeatherDisplay:10.37,2013-04-28 18:59:00,
2013-04-28 15:04:00,52.3,47.6,30.19,ESE,112,4.7,10.4,84,0.03,-RA,,0.05,90.0,WeatherDisplay:10.37,2013-04-28 19:04:00,
2013-04-28 15:09:00,52.3,47.6,30.19,SSE,161,6.5,8.1,84,0.03,-RA,,0.05,77.0,WeatherDisplay:10.37,2013-04-28 19:09:00,
2013-04-28 15:14:00,52.2,47.5,30.19,South,186,6.8,7.5,84,0.03,-RA,,0.05,81.0,WeatherDisplay:10.37,2013-04-28 19:14:00,
2013-04-28 15:19:00,52.3,47.6,30.18,South,176,6.1,13.8,84,0.02,-RA,,0.05,98.0,WeatherDisplay:10.37,2013-04-28 19:19:00,
2013-04-28 15:24:00,52.5,47.8,30.17,SE,132,4.8,6.0,84,0.02,-RA,,0.05,109.0,WeatherDisplay:10.37,2013-04-28 19:24:00,
2013-04-28 15:29:00,52.5,47.5,30.17,South,174,2.7,8.1,83,0.02,-RA,,0.05,114.0,WeatherDisplay:10.37,2013-04-28 19:29:00,
2013-04-28 15:34:00,52.8,47.8,30.17,SSE,151,6.4,8.1,83,0.01,-RA,,0.05,125.0,WeatherDisplay:10.37,2013-04-28 19:34:00,
2013-04-28 15:39:00,52.8,47.8,30.17,SE,124,7.0,9.2,83,0.02,-RA,,0.06,120.0,WeatherDisplay:10.37,2013-04-28 19:39:00,
2013-04-28 15:44:00,52.9,47.9,30.17,SSE,148,5.1,8.1,83,0.02,-RA,,0.06,134.0,WeatherDisplay:10.37,2013-04-28 19:44:00,
2013-04-28 15:49:00,53.1,48.1,30.16,SSE,152,6.3,9.2,83,0.02,-RA,,0.06,132.0,WeatherDisplay:10.37,2013-04-28 19:49:00,
2013-04-28 15:54:00,53.2,48.2,30.16,ESE,113,4.6,7.5,83,0.02,-RA,,0.06,123.0,WeatherDisplay:10.37,2013-04-28 19:54:00,
2013-04-28 15:59:00,53.2,48.2,30.16,SE,144,5.3,8.1,83,0.01,-RA,,0.06,127.0,WeatherDisplay:10.37,2013-04-28 19:59:00,
2013-04-28 16:04:00,53.5,48.5,30.16,SSE,150,5.1,6.0,83,0.01,OVC,,0.06,141.0,WeatherDisplay:10.37,2013-04-28 20:04:00,
2013-04-28 16:09:00,53.6,48.2,30.15,SSE,159,6.5,8.1,82,0.01,OVC,,0.06,139.0,WeatherDisplay:10.37,2013-04-28 20:09:00,
2013-04-28 16:14:00,53.8,48.1,30.15,South,169,3.3,5.8,81,0.01,OVC,,0.06,111.0,WeatherDisplay:10.37,2013-04-28 20:14:00,
2013-04-28 16:19:00,53.9,48.2,30.15,SSE,155,0.3,1.5,81,0.01,OVC,,0.06,105.0,WeatherDisplay:10.37,2013-04-28 20:19:00,
2013-04-28 16:24:00,54.1,48.4,30.15,SSE,158,0.9,3.5,81,0.01,OVC,,0.06,98.0,WeatherDisplay:10.37,2013-04-28 20:24:00,
2013-04-28 16:29:00,53.9,48.2,30.15,SSE,155,0.4,1.2,81,0.01,OVC,,0.06,63.0,WeatherDisplay:10.37,2013-04-28 20:29:00,
2013-04-28 16:34:00,53.9,48.5,30.15,SSE,156,0.1,1.2,82,0.01,OVC,,0.06,63.0,WeatherDisplay:10.37,2013-04-28 20:34:00,
2013-04-28 16:39:00,53.6,48.2,30.14,SSE,155,0.1,1.2,82,0.01,RA,,0.07,51.0,WeatherDisplay:10.37,2013-04-28 20:39:00,
2013-04-28 16:44:00,53.5,48.5,30.14,SSE,153,2.4,4.5,83,0.01,RA,,0.07,35.0,WeatherDisplay:10.37,2013-04-28 20:44:00,
2013-04-28 16:49:00,53.3,48.3,30.14,SSE,153,1.6,4.6,83,0.01,OVC,,0.07,33.0,WeatherDisplay:10.37,2013-04-28 20:49:00,
2013-04-28 16:54:00,53.2,48.2,30.14,SSE,153,1.4,3.5,83,0.01,OVC,,0.07,25.0,WeatherDisplay:10.37,2013-04-28 20:54:00,
2013-04-28 16:59:00,53.2,48.2,30.14,SSE,153,0.1,1.2,83,0.01,OVC,,0.07,21.0,WeatherDisplay:10.37,2013-04-28 20:59:00,
2013-04-28 17:04:00,53.1,48.1,30.14,SSE,153,0.8,4.6,83,0.01,OVC,,0.07,18.0,WeatherDisplay:10.37,2013-04-28 21:04:00,
2013-04-28 17:09:00,53.2,47.8,30.14,SSE,153,0.0,0.0,82,0.01,OVC,,0.07,16.0,WeatherDisplay:10.37,2013-04-28 21:09:00,
2013-04-28 17:14:00,53.2,48.2,30.13,SSE,153,0.0,0.0,83,0.01,OVC,,0.07,14.0,WeatherDisplay:10.37,2013-04-28 21:14:00,
2013-04-28 17:19:00,53.1,48.1,30.14,SSE,153,0.1,1.2,83,0.01,OVC,,0.07,14.0,WeatherDisplay:10.37,2013-04-28 21:19:00,
2013-04-28 17:24:00,53.1,47.7,30.13,SSE,153,0.8,3.5,82,0.01,OVC,,0.07,14.0,WeatherDisplay:10.37,2013-04-28 21:24:00,
2013-04-28 17:29:00,53.2,47.8,30.13,SSE,153,0.0,0.0,82,0.01,OVC,,0.07,16.0,WeatherDisplay:10.37,2013-04-28 21:29:00,
2013-04-28 17:34:00,53.2,47.8,30.13,SSE,153,0.0,0.0,82,0.01,OVC,,0.07,16.0,WeatherDisplay:10.37,2013-04-28 21:34:00,
2013-04-28 17:39:00,53.2,47.8,30.12,SSE,153,0.0,0.0,82,0.00,OVC,,0.07,18.0,WeatherDisplay:10.37,2013-04-28 21:39:00,
2013-04-28 17:44:00,53.3,47.9,30.12,SSE,153,0.0,0.0,82,0.00,OVC,,0.07,19.0,WeatherDisplay:10.37,2013-04-28 21:44:00,
2013-04-28 17:49:00,53.3,47.9,30.12,SSE,153,0.1,1.5,82,0.00,OVC,,0.07,19.0,WeatherDisplay:10.37,2013-04-28 21:49:00,
2013-04-28 17:54:00,53.3,48.3,30.12,SSE,153,0.2,1.5,83,0.00,OVC,,0.07,21.0,WeatherDisplay:10.37,2013-04-28 21:54:00,
2013-04-28 17:59:00,53.3,48.3,30.12,SSE,153,0.0,0.0,83,0.00,OVC,,0.07,23.0,WeatherDisplay:10.37,2013-04-28 21:59:00,
2013-04-28 18:04:00,53.3,48.3,30.11,SSE,153,0.0,0.0,83,0.00,OVC,,0.07,25.0,WeatherDisplay:10.37,2013-04-28 22:04:00,
2013-04-28 18:09:00,53.5,48.5,30.11,SSE,153,0.0,0.0,83,0.00,OVC,,0.07,30.0,WeatherDisplay:10.37,2013-04-28 22:09:00,
2013-04-28 18:14:00,53.5,48.5,30.11,SSE,153,0.0,0.0,83,0.00,OVC,,0.07,30.0,WeatherDisplay:10.37,2013-04-28 22:14:00,
2013-04-28 18:19:00,53.6,48.2,30.11,SSE,157,2.1,4.5,82,0.00,OVC,,0.07,26.0,WeatherDisplay:10.37,2013-04-28 22:19:00,
2013-04-28 18:24:00,53.8,48.1,30.11,SSE,157,0.0,0.0,81,0.00,OVC,,0.07,21.0,WeatherDisplay:10.37,2013-04-28 22:24:00,
2013-04-28 18:29:00,53.9,47.9,30.11,SSE,157,0.0,0.0,80,0.00,OVC,,0.07,19.0,WeatherDisplay:10.37,2013-04-28 22:29:00,
2013-04-28 18:34:00,53.9,47.9,30.11,SSE,157,0.0,0.0,80,0.00,OVC,,0.07,16.0,WeatherDisplay:10.37,2013-04-28 22:34:00,
2013-04-28 18:39:00,53.9,47.9,30.10,SSE,157,0.3,0.0,80,0.00,OVC,,0.07,18.0,WeatherDisplay:10.37,2013-04-28 22:39:00,
2013-04-28 18:44:00,53.8,47.8,30.10,SSE,157,0.0,0.0,80,0.00,OVC,,0.07,14.0,WeatherDisplay:10.37,2013-04-28 22:44:00,
2013-04-28 18:49:00,53.8,47.8,30.10,SSE,157,0.0,0.0,80,0.00,OVC,,0.07,12.0,WeatherDisplay:10.37,2013-04-28 22:49:00,
2013-04-28 18:54:00,53.8,48.1,30.10,SSE,157,0.0,0.0,81,0.00,OVC,,0.07,9.0,WeatherDisplay:10.37,2013-04-28 22:54:00,
2013-04-28 18:59:00,53.6,47.9,30.10,SSE,157,0.0,0.0,81,0.00,OVC,,0.07,7.0,WeatherDisplay:10.37,2013-04-28 22:59:00,
2013-04-28 19:04:00,53.5,47.8,30.10,SSE,157,0.0,0.0,81,0.00,OVC,,0.07,7.0,WeatherDisplay:10.37,2013-04-28 23:04:00,
2013-04-28 19:09:00,53.5,47.8,30.09,SSE,157,0.0,0.0,81,0.00,OVC,,0.07,7.0,WeatherDisplay:10.37,2013-04-28 23:09:00,
2013-04-28 19:14:00,53.3,47.6,30.09,SSE,157,0.0,0.0,81,0.00,OVC,,0.07,7.0,WeatherDisplay:10.37,2013-04-28 23:14:00,
2013-04-28 19:19:00,53.5,48.1,30.09,SSE,157,0.0,0.0,82,0.00,OVC,,0.07,7.0,WeatherDisplay:10.37,2013-04-28 23:19:00,
2013-04-28 19:24:00,53.3,47.9,30.09,SSE,157,0.0,0.0,82,0.00,OVC,,0.07,5.0,WeatherDisplay:10.37,2013-04-28 23:24:00,
2013-04-28 19:29:00,53.3,47.9,30.09,SSE,157,0.0,0.0,82,0.00,OVC,,0.07,5.0,WeatherDisplay:10.37,2013-04-28 23:29:00,
2013-04-28 19:34:00,53.3,47.9,30.09,SSE,157,0.0,0.0,82,0.00,OVC,,0.07,0.0,WeatherDisplay:10.37,2013-04-28 23:34:00,
2013-04-28 19:39:00,53.2,48.2,30.09,SSE,157,0.1,1.5,83,0.00,OVC,,0.07,0.0,WeatherDisplay:10.37,2013-04-28 23:39:00,
2013-04-28 19:44:00,53.2,48.2,30.09,SSE,157,0.0,0.0,83,0.00,OVC,,0.07,0.0,WeatherDisplay:10.37,2013-04-28 23:44:00,
2013-04-28 19:49:00,53.2,48.2,30.09,SSE,157,0.2,1.5,83,0.00,OVC,,0.07,0.0,WeatherDisplay:10.37,2013-04-28 23:49:00,
2013-04-28 19:54:00,53.2,48.2,30.09,SE,124,4.9,6.0,83,0.00,OVC,,0.07,0.0,WeatherDisplay:10.37,2013-04-28 23:54:00,
2013-04-28 19:59:00,53.2,48.2,30.09,ESE,123,1.1,3.5,83,0.00,OVC,,0.07,0.0,WeatherDisplay:10.37,2013-04-28 23:59:00,
2013-04-28 20:04:00,53.3,48.3,30.09,ESE,123,1.1,3.0,83,0.00,OVC,,0.07,0.0,WeatherDisplay:10.37,2013-04-29 00:04:00,
2013-04-28 20:09:00,53.5,48.5,30.09,SE,129,1.7,4.6,83,0.00,OVC,,0.07,0.0,WeatherDisplay:10.37,2013-04-29 00:09:00,
2013-04-28 20:14:00,53.5,48.5,30.09,SE,128,0.0,1.2,83,0.00,OVC,,0.07,0.0,WeatherDisplay:10.37,2013-04-29 00:14:00,
2013-04-28 20:19:00,53.6,48.2,30.09,SE,128,0.7,3.5,82,0.00,OVC,,0.07,0.0,WeatherDisplay:10.37,2013-04-29 00:19:00,
2013-04-28 20:24:00,53.6,48.2,30.09,SE,130,0.0,1.2,82,0.00,OVC,,0.07,0.0,WeatherDisplay:10.37,2013-04-29 00:24:00,
2013-04-28 20:29:00,53.6,48.2,30.09,SE,130,0.0,0.0,82,0.00,OVC,,0.07,0.0,WeatherDisplay:10.37,2013-04-29 00:29:00,
2013-04-28 20:34:00,53.8,48.4,30.09,SE,144,3.0,6.0,82,0.00,OVC,,0.07,0.0,WeatherDisplay:10.37,2013-04-29 00:34:00,
2013-04-28 20:39:00,53.9,48.2,30.09,SSE,159,3.4,4.6,81,0.00,OVC,,0.07,0.0,WeatherDisplay:10.37,2013-04-29 00:39:00,
2013-04-28 20:44:00,54.1,48.4,30.09,SSE,158,0.8,5.8,81,0.00,OVC,,0.07,0.0,WeatherDisplay:10.37,2013-04-29 00:44:00,
2013-04-28 20:49:00,54.1,48.1,30.09,SSE,158,0.1,1.5,80,0.00,OVC,,0.07,0.0,WeatherDisplay:10.37,2013-04-29 00:49:00,
2013-04-28 20:54:00,54.1,48.1,30.10,SSE,158,1.3,4.6,80,0.00,OVC,,0.07,0.0,WeatherDisplay:10.37,2013-04-29 00:54:00,
2013-04-28 20:59:00,54.2,48.2,30.10,SSE,166,1.1,3.0,80,0.00,OVC,,0.07,0.0,WeatherDisplay:10.37,2013-04-29 00:59:00,
2013-04-28 21:04:00,54.2,47.8,30.10,SSE,166,0.0,0.0,79,0.00,OVC,,0.07,0.0,WeatherDisplay:10.37,2013-04-29 01:04:00,
2013-04-28 21:09:00,54.4,47.7,30.09,SSE,166,0.0,1.2,78,0.00,OVC,,0.07,0.0,WeatherDisplay:10.37,2013-04-29 01:09:00,
2013-04-28 21:15:00,54.5,47.8,30.09,SSE,165,0.0,0.0,78,0.00,OVC,,0.07,0.0,WeatherDisplay:10.37,2013-04-29 01:15:00,
2013-04-28 21:20:00,54.5,47.4,30.09,SSE,165,0.0,0.0,77,0.00,OVC,,0.07,0.0,WeatherDisplay:10.37,2013-04-29 01:20:00,
2013-04-28 21:25:00,54.7,47.3,30.09,SSE,162,4.7,8.1,76,0.00,OVC,,0.07,0.0,WeatherDisplay:10.37,2013-04-29 01:25:00,
2013-04-28 21:30:00,54.7,47.3,30.10,SSE,162,0.0,1.5,76,0.00,OVC,,0.07,0.0,WeatherDisplay:10.37,2013-04-29 01:30:00,
2013-04-28 21:35:00,54.8,46.7,30.09,SSW,200,5.6,8.1,74,0.00,OVC,,0.07,0.0,WeatherDisplay:10.37,2013-04-29 01:35:00,
2013-04-28 21:40:00,55.1,46.6,30.09,South,189,2.7,4.6,73,0.00,OVC,,0.07,0.0,WeatherDisplay:10.37,2013-04-29 01:40:00,
2013-04-28 21:45:00,55.4,46.5,30.09,SSE,166,1.2,5.8,72,0.00,OVC,,0.07,0.0,WeatherDisplay:10.37,2013-04-29 01:45:00,
2013-04-28 21:50:00,55.6,46.3,30.09,SSE,168,4.1,8.1,71,0.00,OVC,,0.07,0.0,WeatherDisplay:10.37,2013-04-29 01:50:00,
2013-04-28 21:55:00,55.7,46.1,30.10,South,190,0.9,3.5,70,0.00,OVC,,0.07,0.0,WeatherDisplay:10.37,2013-04-29 01:55:00,
2013-04-28 22:00:00,55.6,46.3,30.10,SSE,157,0.9,6.0,71,0.00,OVC,,0.07,0.0,WeatherDisplay:10.37,2013-04-29 02:00:00,
2013-04-28 22:05:00,55.7,46.1,30.10,South,178,1.8,5.8,70,0.00,OVC,,0.07,0.0,WeatherDisplay:10.37,2013-04-29 02:05:00,
2013-04-28 22:10:00,55.9,45.9,30.10,South,186,0.5,1.2,69,0.00,OVC,,0.07,0.0,WeatherDisplay:10.37,2013-04-29 02:10:00,
2013-04-28 22:15:00,55.9,45.9,30.10,SSW,196,0.2,4.6,69,0.00,OVC,,0.07,0.0,WeatherDisplay:10.37,2013-04-29 02:15:00,
2013-04-28 22:20:00,55.9,45.9,30.10,SSE,167,2.1,8.1,69,0.00,OVC,,0.07,0.0,WeatherDisplay:10.37,2013-04-29 02:20:00,
2013-04-28 22:25:00,56.0,46.0,30.10,SE,146,6.9,10.4,69,0.00,OVC,,0.07,0.0,WeatherDisplay:10.37,2013-04-29 02:25:00,
2013-04-28 22:30:00,56.0,46.0,30.10,SSE,154,3.0,10.4,69,0.00,OVC,,0.07,0.0,WeatherDisplay:10.37,2013-04-29 02:30:00,
2013-04-28 22:35:00,56.2,46.2,30.10,SSE,157,6.9,9.2,69,0.00,OVC,,0.07,0.0,WeatherDisplay:10.37,2013-04-29 02:35:00,
2013-04-28 22:40:00,56.0,46.4,30.09,SE,134,5.8,6.0,70,0.00,OVC,,0.07,0.0,WeatherDisplay:10.37,2013-04-29 02:40:00,
2013-04-28 22:45:00,56.0,46.4,30.09,SSE,163,7.1,7.5,70,0.00,OVC,,0.07,0.0,WeatherDisplay:10.37,2013-04-29 02:45:00,
2013-04-28 22:50:00,56.0,46.7,30.09,SSE,154,2.3,4.5,71,0.00,OVC,,0.07,0.0,WeatherDisplay:10.37,2013-04-29 02:50:00,
2013-04-28 22:55:00,55.9,46.6,30.09,SE,143,4.9,8.1,71,0.00,OVC,,0.07,0.0,WeatherDisplay:10.37,2013-04-29 02:55:00,
2013-04-28 23:00:00,55.7,46.8,30.09,SSE,158,2.5,8.1,72,0.00,OVC,,0.07,0.0,WeatherDisplay:10.37,2013-04-29 03:00:00,
2013-04-28 23:05:00,55.7,46.8,30.09,SSE,150,7.8,10.5,72,0.00,OVC,,0.07,0.0,WeatherDisplay:10.37,2013-04-29 03:05:00,
2013-04-28 23:10:00,55.9,46.6,30.09,SSE,158,2.3,5.8,71,0.00,OVC,,0.07,0.0,WeatherDisplay:10.37,2013-04-29 03:10:00,
2013-04-28 23:15:00,55.9,47.0,30.09,SSE,150,4.4,6.0,72,0.00,OVC,,0.07,0.0,WeatherDisplay:10.37,2013-04-29 03:15:00,
2013-04-28 23:20:00,55.9,47.0,30.09,SSE,154,4.1,7.5,72,0.00,OVC,,0.07,0.0,WeatherDisplay:10.37,2013-04-29 03:20:00,
2013-04-28 23:25:00,55.9,47.4,30.09,SSE,159,6.5,9.0,73,0.00,OVC,,0.07,0.0,WeatherDisplay:10.37,2013-04-29 03:25:00,
2013-04-28 23:30:00,55.7,47.2,30.08,SSE,164,3.4,8.1,73,0.00,OVC,,0.07,0.0,WeatherDisplay:10.37,2013-04-29 03:30:00,
2013-04-28 23:35:00,55.7,47.2,30.09,South,172,1.9,4.6,73,0.00,OVC,,0.07,0.0,WeatherDisplay:10.37,2013-04-29 03:35:00,
2013-04-28 23:40:00,55.7,47.5,30.09,SSE,162,4.0,5.8,74,0.00,OVC,,0.07,0.0,WeatherDisplay:10.37,2013-04-29 03:40:00,
2013-04-28 23:45:00,55.7,47.5,30.09,South,171,3.3,5.8,74,0.00,OVC,,0.07,0.0,WeatherDisplay:10.37,2013-04-29 03:45:00,
2013-04-28 23:50:00,55.9,47.7,30.09,SSE,163,11.9,13.8,74,0.00,OVC,,0.07,0.0,WeatherDisplay:10.37,2013-04-29 03:50:00,
2013-04-28 23:55:00,55.9,47.7,30.08,SSE,166,1.2,3.5,74,0.00,OVC,,0.07,0.0,WeatherDisplay:10.37,2013-04-29 03:55:00,